createdAt,value
2023-02-24T00:02:01.989Z,175.02
2023-02-24T00:04:34.762Z,162.60
2023-02-24T00:07:02.844Z,156.90
2023-02-24T00:09:30.789Z,332.38
2023-02-24T00:12:13.081Z,500.20
2023-02-24T00:14:42.800Z,500.67
2023-02-24T00:17:10.668Z,380.23
2023-02-24T00:19:38.226Z,331.88
2023-02-24T00:22:07.545Z,341.90
2023-02-24T00:24:35.502Z,321.48
2023-02-24T00:27:07.591Z,306.80
2023-02-24T00:32:07.026Z,274.42
2023-02-24T00:34:36.547Z,258.83
2023-02-24T00:37:06.731Z,257.88
2023-02-24T00:39:35.577Z,219.10
2023-02-24T00:42:04.995Z,235.00
2023-02-24T00:44:44.812Z,234.27
2023-02-24T00:47:13.156Z,253.77
2023-02-24T00:49:43.986Z,316.58
2023-02-24T00:52:16.558Z,271.70
2023-02-24T00:54:45.179Z,243.68
2023-02-24T00:57:12.364Z,249.13
2023-02-24T00:59:39.507Z,215.13
2023-02-24T01:02:07.221Z,185.88
2023-02-24T01:04:34.561Z,278.55
2023-02-24T01:07:01.848Z,313.38
2023-02-24T01:09:30.946Z,223.55
2023-02-24T01:12:16.909Z,172.63
2023-02-24T01:14:47.685Z,103.63
2023-02-24T01:17:15.890Z,96.07
2023-02-24T01:19:44.718Z,104.10
2023-02-24T01:22:15.014Z,110.68
2023-02-24T01:24:44.544Z,123.18
2023-02-24T01:27:13.434Z,109.80
2023-02-24T01:29:41.883Z,131.80
2023-02-24T01:32:17.078Z,148.73
2023-02-24T01:34:44.426Z,148.50
2023-02-24T01:37:16.184Z,184.48
2023-02-24T01:39:44.734Z,214.02
2023-02-24T01:42:16.826Z,209.52
2023-02-24T01:44:43.669Z,185.85
2023-02-24T01:47:11.297Z,186.48
2023-02-24T01:49:42.849Z,198.02
2023-02-24T01:52:09.378Z,217.55
2023-02-24T01:54:42.935Z,214.75
2023-02-24T01:57:17.231Z,225.15
2023-02-24T01:59:46.493Z,214.27
2023-02-24T02:02:15.072Z,160.88
2023-02-24T02:04:42.707Z,161.98
2023-02-24T02:07:12.926Z,193.00
2023-02-24T02:09:43.716Z,187.30
2023-02-24T02:12:10.948Z,142.60
2023-02-24T02:14:47.976Z,114.93
2023-02-24T02:17:47.917Z,181.82
2023-02-24T02:20:53.795Z,244.13
2023-02-24T02:23:58.622Z,225.10
2023-02-24T02:26:28.246Z,198.48
2023-02-24T02:29:14.018Z,191.93
2023-02-24T02:32:07.909Z,155.82
2023-02-24T02:34:40.491Z,164.90
2023-02-24T02:37:11.846Z,158.40
2023-02-24T02:39:52.651Z,168.40
2023-02-24T02:42:30.262Z,152.93
2023-02-24T02:45:09.638Z,159.02
2023-02-24T02:47:51.900Z,170.95
2023-02-24T02:50:52.700Z,221.13
2023-02-24T02:53:37.645Z,210.05
2023-02-24T02:56:16.624Z,216.80
2023-02-24T02:58:49.382Z,222.25
2023-02-24T03:01:20.883Z,199.55
2023-02-24T03:03:53.503Z,198.52
2023-02-24T03:06:35.129Z,206.48
2023-02-24T03:09:12.365Z,193.45
2023-02-24T03:11:41.375Z,214.65
2023-02-24T03:14:13.470Z,190.82
2023-02-24T03:19:13.187Z,124.40
2023-02-24T03:21:47.105Z,99.72
2023-02-24T03:24:15.687Z,77.05
2023-02-24T03:26:52.068Z,53.95
2023-02-24T03:29:30.496Z,53.00
2023-02-24T03:32:06.398Z,40.13
2023-02-24T03:34:55.232Z,35.33
2023-02-24T03:37:29.794Z,35.15
2023-02-24T03:39:59.900Z,37.28
2023-02-24T03:42:33.737Z,32.22
2023-02-24T03:45:01.775Z,38.92
2023-02-24T03:47:28.358Z,26.08
2023-02-24T03:49:55.087Z,28.67
2023-02-24T03:52:42.880Z,30.00
2023-02-24T03:55:34.370Z,31.02
2023-02-24T03:58:08.433Z,27.27
2023-02-24T04:01:05.689Z,29.17
2023-02-24T04:03:42.745Z,24.17
2023-02-24T04:06:57.991Z,25.20
2023-02-24T04:09:40.015Z,21.30
2023-02-24T04:12:29.989Z,25.15
2023-02-24T04:15:22.423Z,24.45
2023-02-24T04:17:57.515Z,32.85
2023-02-24T04:20:32.083Z,24.25
2023-02-24T04:23:08.640Z,20.85
2023-02-24T04:25:37.374Z,21.33
2023-02-24T04:28:08.007Z,22.30
2023-02-24T04:30:40.866Z,25.63
2023-02-24T04:33:07.973Z,21.00
2023-02-24T04:35:34.504Z,24.23
2023-02-24T04:38:01.481Z,20.55
2023-02-24T04:40:28.737Z,21.30
2023-02-24T04:42:55.345Z,21.05
2023-02-24T04:45:24.796Z,26.90
2023-02-24T04:47:56.047Z,24.20
2023-02-24T04:50:25.971Z,21.07
2023-02-24T04:53:07.160Z,22.80
2023-02-24T04:55:42.360Z,24.20
2023-02-24T04:58:19.143Z,21.08
2023-02-24T05:00:48.865Z,19.55
2023-02-24T05:03:17.189Z,26.92
2023-02-24T05:05:58.085Z,23.23
2023-02-24T05:08:27.161Z,21.48
2023-02-24T05:10:54.911Z,22.17
2023-02-24T05:13:27.224Z,23.80
2023-02-24T05:16:00.175Z,27.33
2023-02-24T05:18:30.020Z,23.25
2023-02-24T05:21:15.488Z,28.83
2023-02-24T05:23:44.704Z,24.45
2023-02-24T05:26:17.671Z,26.20
2023-02-24T05:28:49.125Z,22.60
2023-02-24T05:31:21.846Z,15.23
2023-02-24T05:33:54.544Z,25.15
2023-02-24T05:36:22.201Z,168.00
2023-02-24T05:38:56.557Z,42.20
2023-02-24T05:41:32.299Z,31.40
2023-02-24T05:44:02.347Z,43.72
2023-02-24T05:46:33.514Z,96.00
2023-02-24T05:49:03.628Z,57.33
2023-02-24T05:51:38.920Z,96.22
2023-02-24T05:54:08.946Z,92.78
2023-02-24T05:56:38.633Z,56.78
2023-02-24T05:59:11.295Z,91.88
2023-02-24T06:01:41.493Z,162.05
2023-02-24T06:04:09.066Z,109.60
2023-02-24T06:06:39.083Z,122.05
2023-02-24T06:09:10.717Z,95.55
2023-02-24T06:11:38.952Z,288.05
2023-02-24T06:14:08.315Z,175.75
2023-02-24T06:16:36.754Z,101.43
2023-02-24T06:19:05.251Z,57.15
2023-02-24T06:21:32.157Z,51.38
2023-02-24T06:24:00.779Z,64.88
2023-02-24T06:26:33.635Z,47.03
2023-02-24T06:29:00.487Z,38.70
2023-02-24T06:31:27.587Z,34.15
2023-02-24T06:33:54.463Z,30.80
2023-02-24T06:36:21.228Z,33.88
2023-02-24T06:38:49.593Z,39.05
2023-02-24T06:41:16.502Z,35.50
2023-02-24T06:43:45.127Z,56.13
2023-02-24T06:46:14.336Z,73.82
2023-02-24T06:48:42.011Z,70.22
2023-02-24T06:51:13.541Z,68.50
2023-02-24T06:53:43.260Z,67.10
2023-02-24T06:56:19.724Z,71.30
2023-02-24T06:58:50.612Z,68.32
2023-02-24T07:01:20.495Z,76.80
2023-02-24T07:04:03.533Z,73.32
2023-02-24T07:06:38.111Z,62.33
2023-02-24T07:09:08.565Z,59.58
2023-02-24T07:11:36.563Z,59.45
2023-02-24T07:14:05.619Z,54.58
2023-02-24T07:16:34.404Z,56.05
2023-02-24T07:19:11.229Z,37.97
2023-02-24T07:21:39.778Z,53.38
2023-02-24T07:24:32.967Z,62.05
2023-02-24T07:27:02.818Z,42.67
2023-02-24T07:29:32.254Z,59.47
2023-02-24T07:32:03.762Z,45.17
2023-02-24T07:34:31.391Z,74.13
2023-02-24T07:36:58.005Z,72.30
2023-02-24T07:39:25.709Z,69.93
2023-02-24T07:41:55.081Z,60.25
2023-02-24T07:44:24.209Z,67.22
2023-02-24T07:46:51.336Z,53.70
2023-02-24T07:49:25.851Z,69.38
2023-02-24T07:51:57.547Z,69.40
2023-02-24T07:54:27.243Z,78.07
2023-02-24T07:56:57.186Z,68.63
2023-02-24T07:59:29.713Z,62.90
2023-02-24T08:01:57.336Z,56.25
2023-02-24T08:04:29.908Z,67.45
2023-02-24T08:06:59.004Z,61.33
2023-02-24T08:09:47.144Z,66.65
2023-02-24T08:12:17.952Z,66.55
2023-02-24T08:14:50.854Z,58.72
2023-02-24T08:17:26.258Z,57.05
2023-02-24T08:20:12.831Z,58.25
2023-02-24T08:22:52.127Z,59.10
2023-02-24T08:25:35.953Z,66.68
2023-02-24T08:28:09.645Z,69.63
2023-02-24T08:30:40.278Z,69.03
2023-02-24T08:33:10.336Z,71.43
2023-02-24T08:35:39.112Z,69.30
2023-02-24T08:38:14.650Z,46.85
2023-02-24T08:40:51.152Z,52.75
2023-02-24T08:43:33.017Z,63.45
2023-02-24T08:46:25.514Z,73.63
2023-02-24T08:49:00.681Z,67.82
2023-02-24T08:51:34.599Z,69.22
2023-02-24T08:54:15.470Z,74.07
2023-02-24T08:56:48.953Z,73.07
2023-02-24T08:59:37.800Z,67.38
2023-02-24T09:02:18.542Z,77.80
2023-02-24T09:04:52.183Z,80.88
2023-02-24T09:07:35.239Z,72.45
2023-02-24T09:10:05.767Z,78.43
2023-02-24T09:12:32.291Z,41.63
2023-02-24T09:15:04.738Z,65.57
2023-02-24T09:17:41.109Z,53.67
2023-02-24T09:20:32.572Z,68.07
2023-02-24T09:23:09.555Z,73.60
2023-02-24T09:25:44.413Z,74.18
2023-02-24T09:28:17.470Z,81.45
2023-02-24T09:30:55.417Z,61.35
2023-02-24T09:33:38.661Z,77.47
2023-02-24T09:36:09.938Z,82.25
2023-02-24T09:39:14.952Z,87.97
2023-02-24T09:42:04.647Z,73.75
2023-02-24T09:45:01.354Z,90.90
2023-02-24T09:47:57.110Z,89.05
2023-02-24T09:51:02.748Z,87.82
2023-02-24T09:53:41.305Z,89.07
2023-02-24T09:56:22.698Z,92.57
2023-02-24T09:58:58.513Z,84.28
2023-02-24T10:01:42.727Z,67.80
2023-02-24T10:04:21.192Z,76.05
2023-02-24T10:06:58.876Z,82.50
2023-02-24T10:09:34.334Z,80.63
2023-02-24T10:12:40.067Z,69.22
2023-02-24T10:15:20.210Z,73.13
2023-02-24T10:18:29.700Z,63.97
2023-02-24T10:21:09.280Z,58.55
2023-02-24T10:24:00.729Z,59.78
2023-02-24T10:26:57.940Z,56.28
2023-02-24T10:30:10.798Z,53.40
2023-02-24T10:32:58.627Z,51.35
2023-02-24T10:35:33.455Z,45.28
2023-02-24T10:38:05.324Z,44.63
2023-02-24T10:40:46.793Z,38.40
2023-02-24T10:43:19.077Z,36.00
2023-02-24T10:45:47.704Z,37.42
2023-02-24T10:48:41.088Z,33.65
2023-02-24T10:51:22.622Z,31.00
2023-02-24T10:54:09.875Z,33.78
2023-02-24T10:56:44.287Z,30.63
2023-02-24T10:59:48.101Z,29.80
2023-02-24T11:02:30.002Z,33.75
2023-02-24T11:05:25.027Z,34.65
2023-02-24T11:08:07.318Z,34.70
2023-02-24T11:13:39.094Z,31.40
2023-02-24T11:16:27.939Z,36.47
2023-02-24T11:18:55.841Z,32.63
2023-02-24T11:21:25.648Z,30.48
2023-02-24T11:24:02.833Z,32.40
2023-02-24T11:26:37.758Z,37.47
2023-02-24T11:29:22.812Z,33.60
2023-02-24T11:31:56.176Z,30.05
2023-02-24T11:34:49.319Z,33.08
2023-02-24T11:37:35.938Z,31.30
2023-02-24T11:40:12.134Z,29.05
2023-02-24T11:43:04.150Z,31.83
2023-02-24T11:45:35.247Z,30.98
2023-02-24T11:48:10.249Z,28.23
2023-02-24T11:50:58.103Z,33.58
2023-02-24T11:53:53.595Z,25.40
2023-02-24T11:56:29.393Z,29.52
2023-02-24T11:59:21.411Z,30.10
2023-02-24T12:01:59.137Z,26.25
2023-02-24T12:04:32.120Z,30.27
2023-02-24T12:07:18.763Z,26.35
2023-02-24T12:09:51.581Z,27.00
2023-02-24T12:12:22.230Z,28.08
2023-02-24T12:15:13.530Z,26.63
2023-02-24T12:17:49.453Z,24.58
2023-02-24T12:20:25.578Z,28.55
2023-02-24T12:23:08.109Z,32.67
2023-02-24T12:26:06.784Z,25.95
2023-02-24T12:28:58.905Z,22.85
2023-02-24T12:32:17.492Z,24.52
2023-02-24T12:35:06.719Z,26.00
2023-02-24T12:37:39.163Z,29.70
2023-02-24T12:40:13.733Z,23.30
2023-02-24T12:43:08.188Z,25.05
2023-02-24T12:45:34.850Z,30.75
2023-02-24T12:48:19.819Z,25.40
2023-02-24T12:51:22.324Z,25.33
2023-02-24T12:56:32.650Z,31.20
2023-02-24T12:59:05.337Z,27.27
2023-02-24T13:01:45.799Z,30.58
2023-02-24T13:04:27.001Z,29.02
2023-02-24T13:06:53.743Z,30.57
2023-02-24T13:09:42.076Z,28.25
2023-02-24T13:12:14.508Z,31.42
2023-02-24T13:14:43.207Z,36.05
2023-02-24T13:17:12.783Z,30.58
2023-02-24T13:19:41.442Z,28.63
2023-02-24T13:22:21.717Z,39.47
2023-02-24T13:24:54.030Z,27.95
2023-02-24T13:27:31.049Z,31.67
2023-02-24T13:30:01.568Z,34.38
2023-02-24T13:32:37.646Z,29.38
2023-02-24T13:35:24.559Z,27.00
2023-02-24T13:37:52.042Z,28.88
2023-02-24T13:40:18.553Z,28.70
2023-02-24T13:42:57.127Z,31.38
2023-02-24T13:45:25.929Z,25.45
2023-02-24T13:48:04.515Z,29.73
2023-02-24T13:50:53.064Z,27.88
2023-02-24T13:53:35.303Z,27.45
2023-02-24T13:58:37.251Z,36.40
2023-02-24T14:01:11.323Z,27.67
2023-02-24T14:03:41.460Z,38.42
2023-02-24T14:06:28.291Z,36.63
2023-02-24T14:09:02.289Z,26.48
2023-02-24T14:11:34.525Z,28.77
2023-02-24T14:14:13.464Z,29.25
2023-02-24T14:19:11.818Z,25.38
2023-02-24T14:21:38.407Z,27.98
2023-02-24T14:24:11.950Z,27.85
2023-02-24T14:26:47.743Z,27.00
2023-02-24T14:29:21.857Z,32.58
2023-02-24T14:31:54.514Z,28.73
2023-02-24T14:34:24.004Z,27.10
2023-02-24T14:36:56.307Z,28.88
2023-02-24T14:39:25.357Z,31.13
2023-02-24T14:42:10.352Z,33.63
2023-02-24T14:44:46.646Z,28.45
2023-02-24T14:47:15.391Z,25.92
2023-02-24T14:49:51.365Z,33.13
2023-02-24T14:52:46.346Z,31.38
2023-02-24T14:55:23.088Z,36.22
2023-02-24T14:58:03.041Z,32.08
2023-02-24T15:00:34.167Z,27.02
2023-02-24T15:03:12.040Z,31.27
2023-02-24T15:05:44.988Z,28.35
2023-02-24T15:08:29.006Z,32.67
2023-02-24T15:10:56.051Z,29.80
2023-02-24T15:13:43.614Z,30.65
2023-02-24T15:16:36.358Z,38.75
2023-02-24T15:19:03.426Z,51.15
2023-02-24T15:21:39.636Z,50.35
2023-02-24T15:24:24.571Z,56.42
2023-02-24T15:26:53.012Z,50.17
2023-02-24T15:29:27.009Z,45.50
2023-02-24T15:31:55.826Z,57.10
2023-02-24T15:34:27.291Z,43.75
2023-02-24T15:36:58.134Z,49.03
2023-02-24T15:39:28.742Z,50.92
2023-02-24T15:42:09.750Z,38.90
2023-02-24T15:44:36.638Z,44.65
2023-02-24T15:47:42.678Z,41.30
2023-02-24T15:50:11.470Z,37.53
2023-02-24T15:52:38.786Z,35.28
2023-02-24T15:55:06.414Z,49.70
2023-02-24T15:57:33.233Z,25.27
2023-02-24T16:00:00.241Z,27.15
2023-02-24T16:02:29.661Z,28.95
2023-02-24T16:04:56.247Z,36.33
2023-02-24T16:07:28.921Z,31.75
2023-02-24T16:09:57.765Z,25.10
2023-02-24T16:12:31.759Z,31.52
2023-02-24T16:15:02.435Z,33.03
2023-02-24T16:17:39.565Z,30.80
2023-02-24T16:20:11.916Z,34.53
2023-02-24T16:22:38.537Z,37.72
2023-02-24T16:25:05.851Z,33.90
2023-02-24T16:27:32.600Z,31.48
2023-02-24T16:32:29.897Z,32.72
2023-02-24T16:34:57.313Z,26.98
2023-02-24T16:37:27.577Z,34.13
2023-02-24T16:39:54.899Z,52.50
2023-02-24T16:42:21.996Z,100.90
2023-02-24T16:44:49.541Z,193.57
2023-02-24T16:47:23.729Z,79.35
2023-02-24T16:49:51.434Z,193.13
2023-02-24T16:52:20.063Z,89.82
2023-02-24T16:54:48.228Z,106.45
2023-02-24T16:57:15.210Z,260.42
2023-02-24T16:59:41.870Z,130.88
2023-02-24T17:02:19.191Z,87.13
2023-02-24T17:04:45.803Z,58.50
2023-02-24T17:07:12.338Z,43.58
2023-02-24T17:09:38.959Z,49.88
2023-02-24T17:12:07.610Z,42.40
2023-02-24T17:14:34.748Z,51.50
2023-02-24T17:17:01.468Z,50.13
2023-02-24T17:19:28.095Z,73.30
2023-02-24T17:21:54.755Z,112.78
2023-02-24T17:24:23.897Z,219.63
2023-02-24T17:26:50.431Z,142.75
2023-02-24T17:29:17.039Z,105.53
2023-02-24T17:31:43.792Z,93.80
2023-02-24T17:34:10.600Z,83.05
2023-02-24T17:36:37.173Z,192.90
2023-02-24T17:39:03.749Z,197.10
2023-02-24T17:41:30.396Z,243.55
2023-02-24T17:43:56.970Z,190.35
2023-02-24T17:46:23.848Z,329.30
2023-02-24T17:48:50.638Z,340.13
2023-02-24T17:51:19.095Z,320.55
2023-02-24T17:53:46.191Z,315.92
2023-02-24T17:56:12.730Z,211.57
2023-02-24T17:58:40.509Z,224.18
2023-02-24T18:01:07.623Z,189.13
2023-02-24T18:03:36.179Z,157.25
2023-02-24T18:06:11.184Z,156.88
2023-02-24T18:08:39.271Z,173.77
2023-02-24T18:11:08.098Z,210.68
2023-02-24T18:13:34.693Z,237.23
2023-02-24T18:16:01.947Z,305.05
2023-02-24T18:18:30.259Z,328.15
2023-02-24T18:21:01.732Z,303.65
2023-02-24T18:23:29.147Z,317.98
2023-02-24T18:25:55.674Z,492.35
2023-02-24T18:28:23.008Z,295.73
2023-02-24T18:30:49.745Z,368.80
2023-02-24T18:33:16.768Z,276.15
2023-02-24T18:35:43.543Z,219.43
2023-02-24T18:38:10.236Z,96.75
2023-02-24T18:40:37.279Z,145.73
2023-02-24T18:43:04.518Z,173.95
2023-02-24T18:45:32.180Z,160.43
2023-02-24T18:48:03.508Z,81.15
2023-02-24T18:50:30.098Z,56.90
2023-02-24T18:52:56.621Z,55.22
2023-02-24T18:55:23.436Z,76.43
2023-02-24T18:57:50.111Z,115.63
2023-02-24T19:00:17.185Z,101.97
2023-02-24T19:02:43.831Z,101.85
2023-02-24T19:05:11.127Z,100.15
2023-02-24T19:07:37.982Z,76.38
2023-02-24T19:10:05.437Z,122.20
2023-02-24T19:12:32.269Z,120.80
2023-02-24T19:14:59.066Z,119.15
2023-02-24T19:17:26.054Z,112.70
2023-02-24T19:19:54.014Z,133.57
2023-02-24T19:22:20.965Z,132.75
2023-02-24T19:24:47.831Z,77.95
2023-02-24T19:27:14.527Z,183.13
2023-02-24T19:29:43.900Z,128.88
2023-02-24T19:32:17.624Z,120.82
2023-02-24T19:34:44.393Z,61.92
2023-02-24T19:37:10.918Z,74.70
2023-02-24T19:39:37.686Z,74.07
2023-02-24T19:42:06.468Z,68.68
2023-02-24T19:44:34.010Z,74.90
2023-02-24T19:47:03.768Z,111.40
2023-02-24T19:49:30.613Z,127.90
2023-02-24T19:52:02.617Z,130.82
2023-02-24T19:54:33.897Z,153.27
2023-02-24T19:57:00.964Z,197.73
2023-02-24T19:59:30.826Z,235.82
2023-02-24T20:01:59.740Z,197.50
2023-02-24T20:04:29.254Z,180.70
2023-02-24T20:06:56.030Z,177.43
2023-02-24T20:09:22.664Z,160.50
2023-02-24T20:11:52.458Z,151.25
2023-02-24T20:14:22.311Z,132.43
2023-02-24T20:16:49.212Z,129.98
2023-02-24T20:19:17.533Z,148.82
2023-02-24T20:21:44.674Z,137.48
2023-02-24T20:24:14.058Z,149.75
2023-02-24T20:26:42.535Z,142.02
2023-02-24T20:29:09.565Z,125.63
2023-02-24T20:31:36.351Z,127.95
2023-02-24T20:34:12.786Z,154.85
2023-02-24T20:36:43.942Z,127.32
2023-02-24T20:39:17.519Z,96.15
2023-02-24T20:41:47.265Z,109.18
2023-02-24T20:44:20.154Z,112.72
2023-02-24T20:46:50.071Z,119.93
2023-02-24T20:49:16.882Z,165.32
2023-02-24T20:51:46.771Z,171.80
2023-02-24T20:54:19.801Z,154.27
2023-02-24T20:56:56.992Z,233.05
2023-02-24T20:59:30.576Z,194.15
2023-02-24T21:02:00.338Z,217.57
2023-02-24T21:04:36.165Z,225.40
2023-02-24T21:07:18.423Z,229.95
2023-02-24T21:10:08.279Z,171.85
2023-02-24T21:12:35.140Z,177.23
2023-02-24T21:15:19.909Z,151.38
2023-02-24T21:17:56.448Z,121.25
2023-02-24T21:20:26.216Z,112.97
2023-02-24T21:22:55.802Z,118.50
2023-02-24T21:25:28.164Z,150.23
2023-02-24T21:28:14.260Z,125.93
2023-02-24T21:30:42.775Z,103.45
2023-02-24T21:33:13.558Z,114.10
2023-02-24T21:35:45.368Z,99.70
2023-02-24T21:38:12.159Z,121.65
2023-02-24T21:40:45.071Z,102.25
2023-02-24T21:43:11.860Z,115.82
2023-02-24T21:45:39.691Z,96.13
2023-02-24T21:48:09.455Z,100.97
2023-02-24T21:50:36.087Z,97.00
2023-02-24T21:53:02.774Z,93.80
2023-02-24T21:55:29.930Z,92.47
2023-02-24T21:57:56.433Z,98.95
2023-02-24T22:00:24.095Z,91.32
2023-02-24T22:02:55.421Z,82.95
2023-02-24T22:05:24.486Z,81.53
2023-02-24T22:07:51.389Z,81.88
2023-02-24T22:10:21.182Z,72.03
2023-02-24T22:12:48.568Z,69.18
2023-02-24T22:15:16.546Z,74.22
2023-02-24T22:17:43.147Z,71.75
2023-02-24T22:20:12.394Z,75.50
2023-02-24T22:22:41.484Z,82.25
2023-02-24T22:25:10.649Z,71.32
2023-02-24T22:27:37.306Z,58.92
2023-02-24T22:30:07.709Z,57.92
2023-02-24T22:32:35.540Z,55.17
2023-02-24T22:35:02.248Z,57.15
2023-02-24T22:37:29.750Z,54.17
2023-02-24T22:39:56.608Z,47.83
2023-02-24T22:42:23.550Z,62.50
2023-02-24T22:44:50.194Z,57.63
2023-02-24T22:47:16.986Z,67.93
2023-02-24T22:49:43.778Z,73.50
2023-02-24T22:52:11.560Z,69.65
2023-02-24T22:54:38.237Z,73.97
2023-02-24T22:57:04.747Z,66.55
2023-02-24T22:59:31.485Z,74.88
2023-02-24T23:01:59.456Z,62.05
2023-02-24T23:04:29.087Z,70.15
2023-02-24T23:06:55.577Z,59.88
2023-02-24T23:09:22.745Z,51.92
2023-02-24T23:11:49.384Z,38.67
2023-02-24T23:14:16.387Z,34.53
2023-02-24T23:16:44.911Z,32.13
2023-02-24T23:19:18.793Z,35.33
2023-02-24T23:21:47.935Z,34.65
2023-02-24T23:24:15.687Z,35.22
2023-02-24T23:26:48.283Z,33.97
2023-02-24T23:29:17.876Z,27.25
2023-02-24T23:31:45.352Z,24.15
2023-02-24T23:34:12.238Z,29.75
2023-02-24T23:36:41.627Z,27.00
2023-02-24T23:39:09.056Z,27.50
2023-02-24T23:41:36.570Z,19.63
2023-02-24T23:44:04.453Z,20.52
2023-02-24T23:46:32.489Z,24.95
2023-02-24T23:49:00.835Z,14.82
2023-02-24T23:51:35.804Z,22.20
2023-02-24T23:54:08.867Z,18.88
2023-02-24T23:56:36.502Z,19.02
2023-02-24T23:59:03.299Z,21.83
